Time;durP1;ratioP1;P1;durP2;ratioP2;P2;SDS_P1;SDS_P2;PMS_P1;PMS_P2;Temp;Humidity;BMP_temperature;BMP_pressure;BME280_temperature;BME280_humidity;BME280_pressure;Samples;Min_cycle;Max_cycle;Signal;HPM_P1;HPM_P2
2022/08/28 00:01:59;;;;;;;10.10;9.10;;;;;;;18.18;74.64;98441.44;86413;1300;22801;-75
2022/08/28 00:04:44;;;;;;;10.20;8.70;;;;;;;18.19;74.71;98446.64;86539;1300;99295;-76
2022/08/28 00:07:36;;;;;;;17.10;8.00;;;;;;;18.18;74.66;98441.44;86639;1300;22577;-76
2022/08/28 00:10:41;;;;;;;10.50;7.90;;;;;;;18.18;74.68;98438.23;86593;1299;99587;-76
2022/08/28 00:13:44;;;;;;;12.30;8.80;;;;;;;18.17;74.69;98432.41;86743;1294;25498;-77
2022/08/28 00:16:48;;;;;;;13.80;7.60;;;;;;;18.17;74.77;98429.98;87078;1290;99332;-76
2022/08/28 00:19:51;;;;;;;15.40;8.60;;;;;;;18.17;74.74;98432.64;87141;1290;24156;-76
2022/08/28 00:22:54;;;;;;;21.80;8.80;;;;;;;18.17;74.79;98428.35;87750;1283;99132;-76
2022/08/28 00:29:02;;;;;;;19.00;9.20;;;;;;;18.19;74.93;98422.65;87479;1287;99285;-76
2022/08/28 00:32:07;;;;;;;20.60;9.50;;;;;;;18.18;74.93;98423.61;87498;1288;25671;-76
2022/08/28 00:35:07;;;;;;;16.20;9.10;;;;;;;18.18;74.93;98429.13;87557;1287;99850;-76
2022/08/28 00:41:15;;;;;;;16.10;9.00;;;;;;;18.18;74.97;98416.84;88044;1279;99125;-76
2022/08/28 00:50:29;;;;;;;;;;;;;;;;;;;;;
2022/08/28 00:53:34;;;;;;;15.90;9.10;;;;;;;18.13;75.26;98411.09;87538;1288;99364;-76
2022/08/28 00:56:37;;;;;;;10.30;9.30;;;;;;;18.14;75.37;98413.19;87821;1285;25973;-76
2022/08/28 00:59:39;;;;;;;16.00;10.40;;;;;;;18.14;75.40;98414.73;87823;1285;22748;-76
2022/08/28 01:02:42;;;;;;;;;;;;;;;;;;;;;
2022/08/28 01:08:55;;;;;;;16.70;9.60;;;;;;;18.19;75.69;98401.67;87763;1290;23066;-78
2022/08/28 01:14:05;;;;;;;14.00;9.20;;;;;;;18.24;75.77;98396.67;86478;1303;25338;-76
2022/08/28 01:17:08;;;;;;;15.30;9.20;;;;;;;18.25;75.72;98396.94;86387;1300;99261;-76
2022/08/28 01:20:01;;;;;;;;;;;;;;;;;;;;;
2022/08/28 01:22:57;;;;;;;;;;;;;;;;;;;;;
2022/08/28 01:26:01;;;;;;;;;;;;;;;;;;;;;
2022/08/28 01:28:44;;;;;;;15.90;9.50;;;;;;;18.26;76.09;98407.64;85829;1308;99843;-76
2022/08/28 01:31:47;;;;;;;14.80;9.00;;;;;;;18.25;75.97;98409.33;85917;1309;22594;-77
2022/08/28 01:37:30;;;;;;;24.60;9.00;;;;;;;18.23;75.98;98414.72;85137;1318;22634;-76
2022/08/28 01:40:31;;;;;;;16.40;9.90;;;;;;;18.23;76.16;98419.16;85229;1315;99233;-77
2022/08/28 01:43:24;;;;;;;;;;;;;;;;;;;;;
2022/08/28 01:46:26;;;;;;;11.30;8.80;;;;;;;18.25;76.24;98418.41;85691;1309;99235;-74
2022/08/28 01:55:28;;;;;;;15.50;10.40;;;;;;;18.24;76.35;98417.95;86430;1300;23187;-76
2022/08/28 01:58:30;;;;;;;12.50;10.10;;;;;;;18.25;76.38;98415.06;86112;1303;99492;-77
2022/08/28 02:04:03;;;;;;;24.70;9.60;;;;;;;18.25;76.43;98421.11;86920;1294;99207;-76
2022/08/28 02:06:37;;;;;;;16.90;10.20;;;;;;;18.23;76.46;98422.70;86870;1294;22735;-77
2022/08/28 02:09:41;;;;;;;19.30;9.50;;;;;;;18.21;76.53;98424.73;86993;1291;24431;-77
2022/08/28 02:12:33;;;;;;;14.40;10.40;;;;;;;18.22;76.58;98428.64;87571;1286;22679;-75
2022/08/28 02:15:35;;;;;;;17.20;9.80;;;;;;;18.20;76.68;98435.14;88043;1281;24506;-76
2022/08/28 02:18:38;;;;;;;15.50;9.90;;;;;;;18.20;76.71;98441.74;88163;1279;22702;-76
2022/08/28 02:21:41;;;;;;;12.50;9.70;;;;;;;18.20;76.81;98435.03;88190;1280;22640;-76
2022/08/28 02:24:03;;;;;;;15.80;9.70;;;;;;;18.17;76.67;98437.73;88107;1281;22695;-77
2022/08/28 02:27:07;;;;;;;19.30;10.10;;;;;;;18.16;76.73;98436.76;88098;1281;23172;-76
2022/08/28 02:29:42;;;;;;;;;;;;;;;;;;;;;
2022/08/28 02:35:55;;;;;;;15.00;8.90;;;;;;;18.15;76.79;98432.77;87038;1288;99603;-76
2022/08/28 02:38:58;;;;;;;18.00;9.60;;;;;;;18.14;76.87;98432.92;87311;1290;22537;-76
2022/08/28 02:42:01;;;;;;;18.00;9.60;;;;;;;18.12;76.87;98434.86;87232;1290;99243;-76
2022/08/28 02:45:02;;;;;;;23.90;10.70;;;;;;;18.09;76.97;98445.75;87393;1291;24065;-76
2022/08/28 02:48:00;;;;;;;19.60;10.00;;;;;;;18.08;77.06;98449.05;87366;1289;22653;-76
2022/08/28 02:51:03;;;;;;;;;;;;;;;;;;;;;
2022/08/28 02:54:06;;;;;;;16.10;10.60;;;;;;;18.04;77.07;98450.08;87256;1291;99277;-77
2022/08/28 03:03:14;;;;;;;14.10;9.70;;;;;;;18.03;77.26;98447.87;86891;1294;24403;-76
2022/08/28 03:06:16;;;;;;;12.10;9.10;;;;;;;18.01;77.23;98448.45;86889;1294;22814;-76
2022/08/28 03:09:00;;;;;;;19.20;9.90;;;;;;;17.99;77.30;98447.90;86870;1294;25684;-77
2022/08/28 03:12:02;;;;;;;23.40;10.20;;;;;;;18.00;77.33;98452.42;86748;1292;99129;-77
2022/08/28 03:14:54;;;;;;;26.40;12.30;;;;;;;18.00;77.46;98446.54;87321;1288;23680;-76
2022/08/28 03:17:47;;;;;;;12.60;10.30;;;;;;;17.97;77.48;98434.54;86910;1294;99523;-76
2022/08/28 03:20:51;;;;;;;12.20;9.30;;;;;;;18.02;77.41;98444.39;86964;1294;26892;-75
2022/08/28 03:27:00;;;;;;;16.90;9.50;;;;;;;17.97;77.38;98443.77;87203;1294;23131;-76
2022/08/28 03:30:06;;;;;;;13.80;9.00;;;;;;;17.94;77.43;98446.02;86936;1292;99156;-77
2022/08/28 03:33:08;;;;;;;19.60;10.20;;;;;;;17.88;77.60;98440.11;86967;1291;27567;-76
2022/08/28 03:36:12;;;;;;;16.90;9.90;;;;;;;17.88;77.59;98442.41;86948;1294;99204;-76
2022/08/28 03:42:06;;;;;;;;;;;;;;;;;;;;;
2022/08/28 03:48:14;;;;;;;20.50;9.70;;;;;;;17.73;77.64;98455.23;87418;1287;99028;-76
2022/08/28 03:54:19;;;;;;;13.80;10.10;;;;;;;17.65;77.71;98452.68;88016;1277;22725;-77
2022/08/28 03:57:14;;;;;;;;;;;;;;;;;;;;;
2022/08/28 04:00:22;;;;;;;26.10;11.80;;;;;;;17.66;77.85;98465.76;87958;1281;98119;-76
2022/08/28 04:03:24;;;;;;;13.40;11.20;;;;;;;17.66;77.97;98476.48;88113;1281;23984;-76
2022/08/28 04:06:26;;;;;;;12.00;10.50;;;;;;;17.66;78.02;98484.27;88270;1281;24025;-76
2022/08/28 04:12:31;;;;;;;14.80;10.30;;;;;;;17.63;78.07;98493.80;87292;1290;22608;-76
2022/08/28 04:18:37;;;;;;;22.20;11.80;;;;;;;17.66;78.17;98501.81;87332;1291;24420;-76
2022/08/28 04:21:39;;;;;;;18.90;11.30;;;;;;;17.68;78.33;98497.21;87243;1291;22660;-75
2022/08/28 04:24:41;;;;;;;23.90;10.60;;;;;;;17.69;78.23;98500.56;87431;1291;22645;-75
2022/08/28 04:27:39;;;;;;;24.80;11.90;;;;;;;17.69;78.30;98505.00;87367;1288;22690;-77
2022/08/28 04:30:42;;;;;;;18.20;11.40;;;;;;;17.69;78.32;98503.01;86976;1294;22791;-76
2022/08/28 04:33:44;;;;;;;18.10;11.20;;;;;;;17.71;78.48;98499.14;87086;1285;22747;-74
2022/08/28 04:36:46;;;;;;;21.40;12.00;;;;;;;17.74;78.40;98506.55;87745;1285;22670;-75
2022/08/28 04:39:49;;;;;;;24.80;13.10;;;;;;;17.74;78.41;98500.27;87689;1285;24044;-74
2022/08/28 04:45:56;;;;;;;25.10;13.40;;;;;;;17.86;78.55;98496.38;87808;1283;23301;-75
2022/08/28 04:48:58;;;;;;;19.80;13.30;;;;;;;17.91;78.70;98502.08;88221;1279;22706;-76
2022/08/28 04:52:01;;;;;;;16.30;13.90;;;;;;;17.95;78.64;98511.88;88169;1280;27101;-75
2022/08/28 04:55:01;;;;;;;27.20;13.70;;;;;;;18.00;78.66;98508.01;87903;1284;22743;-75
2022/08/28 04:58:04;;;;;;;23.10;13.50;;;;;;;18.06;78.86;98508.65;87705;1285;22556;-76
2022/08/28 05:04:11;;;;;;;25.90;13.80;;;;;;;18.16;78.84;98507.94;87818;1284;23547;-75
2022/08/28 05:07:13;;;;;;;28.10;13.00;;;;;;;18.22;78.80;98505.30;87749;1284;25967;-75
2022/08/28 05:10:15;;;;;;;20.40;13.60;;;;;;;18.25;78.78;98506.44;87748;1285;23072;-75
2022/08/28 05:13:06;;;;;;;;;;;;;;;;;;;;;
2022/08/28 05:19:17;;;;;;;27.10;13.80;;;;;;;18.44;78.95;98497.17;87430;1288;22642;-76
2022/08/28 05:22:22;;;;;;;23.00;13.40;;;;;;;18.51;79.04;98496.83;87384;1287;25392;-75
2022/08/28 05:25:24;;;;;;;22.70;13.90;;;;;;;18.59;78.94;98495.64;87499;1287;22590;-75
2022/08/28 05:28:26;;;;;;;18.30;12.90;;;;;;;18.67;79.01;98504.17;87388;1287;22605;-75
2022/08/28 05:31:17;;;;;;;;;;;;;;;;;;;;;
2022/08/28 05:34:22;;;;;;;18.20;12.20;;;;;;;18.82;78.91;98512.06;87696;1285;22586;-76
2022/08/28 05:37:24;;;;;;;18.30;12.20;;;;;;;18.90;79.06;98525.27;87681;1285;99553;-75
2022/08/28 05:40:27;;;;;;;16.40;10.80;;;;;;;18.93;78.95;98514.15;87822;1284;22748;-73
2022/08/28 05:43:17;;;;;;;;;;;;;;;;;;;;;
2022/08/28 05:49:18;;;;;;;21.70;10.30;;;;;;;19.10;78.77;98512.84;86643;1296;99848;-74
2022/08/28 05:52:20;;;;;;;17.10;10.60;;;;;;;19.14;78.77;98509.38;86799;1297;22739;-73
2022/08/28 05:55:21;;;;;;;22.00;12.10;;;;;;;19.17;78.71;98502.40;86038;1306;99432;-74
2022/08/28 05:58:47;;;;;;;21.70;12.10;;;;;;;19.19;78.82;98503.98;85950;1305;22673;-74
2022/08/28 06:04:21;;;;;;;;;;;;;;;;;;;;;
2022/08/28 06:07:24;;;;;;;17.90;11.60;;;;;;;19.26;78.64;98500.83;86269;1303;99397;-74
2022/08/28 06:10:18;;;;;;;17.00;11.90;;;;;;;19.28;78.77;98493.76;86346;1303;22585;-74
2022/08/28 06:13:20;;;;;;;16.10;11.80;;;;;;;19.28;78.69;98498.02;86278;1303;99404;-74
2022/08/28 06:16:08;;;;;;;17.20;11.10;;;;;;;19.30;78.74;98505.69;86360;1303;22559;-74
2022/08/28 06:18:52;;;;;;;;;;;;;;;;;;;;;
2022/08/28 06:22:01;;;;;;;21.00;11.80;;;;;;;19.28;78.69;98509.91;85988;1306;25406;-74
2022/08/28 06:25:02;;;;;;;16.80;11.20;;;;;;;19.28;78.67;98507.08;86004;1305;99578;-75
2022/08/28 06:27:55;;;;;;;23.40;11.80;;;;;;;19.29;78.72;98507.52;86790;1299;22636;-77
2022/08/28 06:30:50;;;;;;;15.90;11.10;;;;;;;19.33;78.76;98499.11;86632;1300;99270;-77
2022/08/28 06:33:25;;;;;;;;;;;;;;;;;;;;;
2022/08/28 06:36:21;;;;;;;17.40;12.30;;;;;;;19.43;78.68;98493.89;87262;1291;99520;-74
2022/08/28 06:39:09;;;;;;;20.50;12.50;;;;;;;19.50;78.68;98491.16;86727;1296;22712;-75
2022/08/28 06:42:09;;;;;;;19.10;12.10;;;;;;;19.56;78.61;98493.77;86622;1297;99567;-75
2022/08/28 06:44:53;;;;;;;17.70;13.10;;;;;;;19.66;78.78;98495.04;87063;1297;22649;-76
2022/08/28 06:48:01;;;;;;;18.90;12.00;;;;;;;19.75;78.75;98492.94;87164;1300;99309;-74
2022/08/28 06:51:04;;;;;;;21.80;11.70;;;;;;;19.85;78.61;98497.70;86561;1306;23116;-74
2022/08/28 06:53:37;;;;;;;23.20;11.10;;;;;;;19.96;78.52;98497.98;86287;1307;99685;-74
2022/08/28 06:59:56;;;;;;;;;;;;;;;;;;;;;
2022/08/28 07:01:53;;;;;;;22.00;11.40;;;;;;;20.26;78.22;98498.62;85660;1314;22626;-75
2022/08/28 07:04:35;;;;;;;19.40;11.90;;;;;;;20.35;78.20;98496.23;85979;1314;22605;-75
2022/08/28 07:07:18;;;;;;;13.20;10.90;;;;;;;20.46;78.13;98496.79;85956;1313;23964;-75
2022/08/28 07:09:49;;;;;;;16.60;10.50;;;;;;;20.57;77.92;98493.20;86115;1314;22688;-76
2022/08/28 07:12:52;;;;;;;15.80;10.20;;;;;;;20.65;77.67;98487.64;86094;1312;99406;-76
2022/08/28 07:15:34;;;;;;;18.60;10.80;;;;;;;20.75;77.49;98486.13;86357;1306;22982;-76
2022/08/28 07:18:28;;;;;;;;;;;;;;;;;;;;;
2022/08/28 07:21:17;;;;;;;14.70;9.40;;;;;;;20.78;77.44;98459.94;86521;1309;24323;-77
2022/08/28 07:24:53;;;;;;;13.30;10.60;;;;;;;20.93;77.11;98475.73;86533;1309;99312;-77
2022/08/28 07:26:54;;;;;;;16.50;11.00;;;;;;;21.02;77.34;98480.75;86353;1309;22601;-77
2022/08/28 07:29:56;;;;;;;14.20;11.10;;;;;;;21.08;77.39;98475.94;86807;1306;98334;-76
2022/08/28 07:32:48;;;;;;;13.30;10.10;;;;;;;21.15;77.22;98475.88;86898;1305;22610;-77
2022/08/28 07:35:38;;;;;;;;;;;;;;;;;;;;;
2022/08/28 07:38:49;;;;;;;16.10;11.80;;;;;;;21.25;77.20;98469.50;88152;1306;22601;-78
2022/08/28 07:47:08;;;;;;;19.60;10.60;;;;;;;21.50;76.71;98477.77;87155;1309;544166;-78
2022/08/28 07:50:02;;;;;;;;;;;;;;;;;;;;;
2022/08/28 07:52:21;;;;;;;21.90;9.60;;;;;;;21.60;76.57;98482.13;89155;1286;22623;-78
2022/08/28 07:58:02;;;;;;;;;;;;;;;;;;;;;
2022/08/28 08:00:52;;;;;;;18.60;9.60;;;;;;;21.76;76.53;98472.63;84626;1294;5573656;-79
2022/08/28 08:04:12;;;;;;;;;;;;;;;;;;;;;
2022/08/28 08:06:59;;;;;;;;;;;;;;;;;;;;;
2022/08/28 08:09:33;;;;;;;;;;;;;;;;;;;;;
2022/08/28 08:12:47;;;;;;;;;;;;;;;;;;;;;
2022/08/28 08:16:13;;;;;;;;;;;;;;;;;;;;;
2022/08/28 08:19:18;;;;;;;19.20;8.50;;;;;;;22.40;75.67;98482.73;88108;1284;22889;-78
2022/08/28 08:22:19;;;;;;;20.20;8.40;;;;;;;22.48;75.41;98481.69;87451;1284;98249;-78
2022/08/28 08:25:22;;;;;;;14.40;8.40;;;;;;;22.55;75.59;98477.88;87218;1294;22630;-76
2022/08/28 08:28:49;;;;;;;15.00;8.80;;;;;;;22.67;75.43;98483.79;87130;1292;100232;-76
2022/08/28 08:31:27;;;;;;;14.90;8.40;;;;;;;22.83;75.29;98479.36;82750;1301;24438;-76
2022/08/28 08:34:29;;;;;;;12.50;8.10;;;;;;;22.97;75.44;98483.23;86506;1300;98408;-77
2022/08/28 08:37:03;;;;;;;;;;;;;;;;;;;;;
2022/08/28 08:39:41;;;;;;;17.50;8.60;;;;;;;23.33;75.29;98483.34;87047;1295;98318;-76
2022/08/28 08:42:43;;;;;;;17.00;9.00;;;;;;;23.55;75.36;98485.45;86985;1295;24238;-78
2022/08/28 08:45:47;;;;;;;;;;;;;;;;;;;;;
2022/08/28 08:48:51;;;;;;;22.50;8.80;;;;;;;23.95;74.99;98490.06;86620;1300;22596;-78
2022/08/28 08:51:54;;;;;;;13.20;7.20;;;;;;;24.17;74.63;98490.34;86538;1300;98484;-77
2022/08/28 08:54:48;;;;;;;13.00;8.10;;;;;;;24.29;74.35;98496.83;86662;1300;22677;-75
2022/08/28 08:57:58;;;;;;;;;;;;;;;;;;;;;
2022/08/28 09:01:07;;;;;;;21.80;8.60;;;;;;;24.32;73.93;98501.65;86373;1306;24373;-76
2022/08/28 09:04:24;;;;;;;17.50;7.70;;;;;;;24.34;73.77;98502.56;86245;1303;98677;-76
2022/08/28 09:07:40;;;;;;;;;;;;;;;;;;;;;
2022/08/28 09:10:21;;;;;;;;;;;;;;;;;;;;;
2022/08/28 09:12:51;;;;;;;10.20;6.70;;;;;;;24.43;73.45;98511.63;86961;1297;24301;-75
2022/08/28 09:15:27;;;;;;;12.10;7.10;;;;;;;24.43;73.15;98509.06;86766;1297;98979;-75
2022/08/28 09:17:52;;;;;;;11.60;6.60;;;;;;;24.43;73.12;98509.80;86569;1303;22760;-75
2022/08/28 09:20:32;;;;;;;11.80;6.30;;;;;;;24.41;72.94;98511.99;86515;1303;98824;-74
2022/08/28 09:23:03;;;;;;;13.40;7.30;;;;;;;24.36;72.86;98514.50;86674;1303;22612;-75
2022/08/28 09:26:12;;;;;;;13.30;6.70;;;;;;;24.36;72.66;98516.33;86915;1297;23013;-75
2022/08/28 09:29:17;;;;;;;16.00;7.60;;;;;;;24.37;72.56;98519.45;86589;1300;22601;-76
2022/08/28 09:31:38;;;;;;;12.60;6.50;;;;;;;24.38;72.42;98515.98;86231;1306;22638;-75
2022/08/28 09:34:46;;;;;;;16.10;6.70;;;;;;;24.41;72.50;98518.09;86202;1306;22579;-74
2022/08/28 09:37:47;;;;;;;10.00;7.00;;;;;;;24.48;72.45;98520.02;85358;1315;22641;-75
2022/08/28 09:43:40;;;;;;;;;;;;;;;;;;;;;
2022/08/28 09:46:33;;;;;;;12.80;6.80;;;;;;;24.53;71.99;98527.46;85292;1320;98625;-74
2022/08/28 09:48:47;;;;;;;12.20;6.30;;;;;;;24.66;71.97;98524.86;85366;1318;22866;-74
2022/08/28 09:51:56;;;;;;;7.20;6.20;;;;;;;24.82;71.87;98530.37;85118;1321;98713;-76
2022/08/28 09:54:36;;;;;;;13.30;6.40;;;;;;;25.08;71.44;98529.16;85393;1318;22653;-74
2022/08/28 09:57:09;;;;;;;14.50;6.20;;;;;;;25.13;70.95;98528.10;85427;1315;98713;-75
2022/08/28 09:59:50;;;;;;;;;;;;;;;;;;;;;
2022/08/28 10:02:57;;;;;;;8.50;5.70;;;;;;;25.09;70.86;98527.44;85497;1314;98723;-75
2022/08/28 10:05:36;;;;;;;11.60;5.90;;;;;;;25.04;70.41;98523.50;85790;1311;25975;-76
2022/08/28 10:08:41;;;;;;;;;;;;;;;;;;;;;
2022/08/28 10:11:46;;;;;;;10.80;5.90;;;;;;;24.90;70.79;98520.86;86179;1305;22864;-76
2022/08/28 10:14:41;;;;;;;;;;;;;;;;;;;;;
2022/08/28 10:17:54;;;;;;;19.90;6.10;;;;;;;24.90;70.44;98522.11;87411;1285;23019;-75
2022/08/28 10:20:54;;;;;;;;;;;;;;;24.83;70.35;98519.52;87193;1290;98683;-74
2022/08/28 10:23:58;;;;;;;8.90;7.20;;;;;;;24.80;69.95;98526.77;86978;1292;25557;-73
2022/08/28 10:26:33;;;;;;;11.80;8.80;;;;;;;24.80;69.98;98526.64;87196;1287;98934;-76
2022/08/28 10:29:35;;;;;;;;;;;;;;;;;;;;;
2022/08/28 10:32:22;;;;;;;;;;;;;;;;;;;;;
2022/08/28 10:35:46;;;;;;;7.50;5.80;;;;;;;24.71;69.91;98525.17;87507;1287;22637;-75
2022/08/28 10:39:09;;;;;;;13.40;6.40;;;;;;;24.63;69.70;98524.56;87063;1293;99795;-76
2022/08/28 10:41:17;;;;;;;10.20;5.90;;;;;;;24.59;69.93;98527.31;87003;1293;25422;-75
2022/08/28 10:43:49;;;;;;;13.00;6.50;;;;;;;24.59;70.10;98524.85;87068;1293;23725;-74
2022/08/28 10:45:53;;;;;;;10.80;6.10;;;;;;;24.58;70.07;98522.30;86950;1294;22601;-74
2022/08/28 10:48:51;;;;;;;15.30;5.70;;;;;;;24.59;69.84;98520.04;87135;1293;25916;-74
2022/08/28 10:51:26;;;;;;;24.30;7.70;;;;;;;24.58;69.68;98526.64;86490;1299;99552;-73
2022/08/28 10:53:48;;;;;;;11.00;6.30;;;;;;;24.54;69.98;98526.66;86666;1296;22766;-75
2022/08/28 10:56:05;;;;;;;;;;;;;;;24.52;69.63;98528.15;86563;1299;98813;-75
2022/08/28 10:58:10;;;;;;;10.10;6.50;;;;;;;24.46;69.61;98525.79;87306;1290;22651;-75
2022/08/28 11:00:27;;;;;;;11.10;6.50;;;;;;;24.39;69.38;98526.39;87074;1290;22577;-73
2022/08/28 11:02:29;;;;;;;9.20;6.60;;;;;;;24.34;69.40;98522.90;87194;1293;99172;-74
2022/08/28 11:04:51;;;;;;;;;;;;;;;;;;;;;
2022/08/28 11:06:59;;;;;;;17.60;6.80;;;;;;;24.23;69.57;98524.25;87075;1291;25488;-75
2022/08/28 11:09:23;;;;;;;14.90;6.20;;;;;;;24.22;69.50;98521.66;87019;1293;98822;-74
2022/08/28 11:12:00;;;;;;;10.30;6.30;;;;;;;24.17;69.43;98522.38;87380;1291;22675;-74
2022/08/28 11:14:03;;;;;;;9.00;6.40;;;;;;;24.08;69.25;98519.48;87343;1287;98952;-74
2022/08/28 11:16:48;;;;;;;14.20;6.80;;;;;;;24.05;69.39;98517.63;87713;1285;24306;-75
2022/08/28 11:19:31;;;;;;;11.60;6.50;;;;;;;24.02;69.30;98518.21;87515;1287;22586;-75
2022/08/28 11:21:53;;;;;;;13.90;7.10;;;;;;;23.97;69.28;98515.83;86851;1294;98703;-73
2022/08/28 11:24:07;;;;;;;10.60;6.60;;;;;;;23.94;69.41;98517.42;86894;1294;22615;-75
2022/08/28 11:26:20;;;;;;;13.20;7.30;;;;;;;23.95;69.53;98511.54;86904;1294;98820;-75
2022/08/28 11:28:33;;;;;;;14.90;6.80;;;;;;;23.97;69.43;98515.48;87221;1288;22606;-74
2022/08/28 11:30:35;;;;;;;10.20;6.60;;;;;;;23.94;69.29;98512.61;87754;1287;24182;-76
2022/08/28 11:32:56;;;;;;;13.10;6.70;;;;;;;23.93;69.36;98516.44;87510;1288;98704;-74
2022/08/28 11:48:14;;;;;;;12.90;6.20;;;;;;;24.47;69.05;98506.81;85592;1315;558563;-73
2022/08/28 11:53:39;;;;;;;13.60;6.90;;;;;;;24.44;68.85;98500.51;88439;1273;22831;-73
2022/08/28 11:59:18;;;;;;;12.80;6.50;;;;;;;24.50;68.92;98508.86;88603;1280;25387;-74
2022/08/28 12:02:12;;;;;;;7.70;6.00;;;;;;;24.51;68.67;98508.52;88178;1284;22753;-73
2022/08/28 12:05:16;;;;;;;22.10;6.80;;;;;;;24.50;68.48;98511.55;88061;1282;26793;-73
2022/08/28 12:08:19;;;;;;;15.60;6.70;;;;;;;24.47;68.58;98507.33;87506;1290;22746;-74
2022/08/28 12:11:24;;;;;;;12.20;6.20;;;;;;;24.55;68.65;98509.52;87595;1291;25591;-73
2022/08/28 12:13:49;;;;;;;10.30;6.10;;;;;;;24.68;68.66;98513.15;87366;1290;23105;-74
2022/08/28 12:16:04;;;;;;;13.80;6.10;;;;;;;24.83;68.68;98514.13;87083;1290;99675;-73
2022/08/28 12:19:08;;;;;;;;;;;;;;;;;;;;;
2022/08/28 12:21:42;;;;;;;12.30;5.80;;;;;;;25.00;68.16;98513.76;86901;1293;98659;-72
2022/08/28 12:24:04;;;;;;;14.60;6.90;;;;;;;25.02;68.00;98511.04;87111;1290;22708;-73
2022/08/28 12:26:27;;;;;;;8.90;5.90;;;;;;;24.96;67.65;98512.70;87109;1294;98654;-73
2022/08/28 12:28:47;;;;;;;10.20;6.10;;;;;;;24.89;67.83;98511.63;87150;1293;22583;-73
2022/08/28 12:31:07;;;;;;;9.30;5.80;;;;;;;24.85;67.73;98508.11;87202;1294;26286;-76
2022/08/28 12:33:57;;;;;;;12.00;6.10;;;;;;;24.85;67.82;98503.76;86947;1294;98344;-75
2022/08/28 12:36:04;;;;;;;10.10;6.20;;;;;;;24.84;67.77;98504.57;86998;1299;23185;-75
2022/08/28 12:38:08;;;;;;;7.50;5.80;;;;;;;24.86;67.92;98502.27;87150;1299;98970;-76
2022/08/28 12:40:18;;;;;;;9.80;6.60;;;;;;;24.87;67.66;98499.61;86866;1296;22672;-75
2022/08/28 12:42:30;;;;;;;15.40;6.60;;;;;;;24.86;67.74;98500.76;86869;1296;22640;-75
2022/08/28 12:44:32;;;;;;;13.80;6.60;;;;;;;24.82;67.42;98497.55;87187;1291;98889;-75
2022/08/28 12:46:43;;;;;;;12.70;6.20;;;;;;;24.76;67.66;98491.35;87490;1290;22747;-77
2022/08/28 12:48:52;;;;;;;;;;;;;;;24.75;67.65;98489.81;87531;1289;23694;-75
2022/08/28 12:51:03;;;;;;;7.50;6.10;;;;;;;24.75;67.94;98489.70;87449;1290;84927;-75
2022/08/28 12:53:12;;;;;;;13.90;5.90;;;;;;;24.75;67.71;98485.70;87508;1290;22931;-75
2022/08/28 12:55:14;;;;;;;11.70;6.40;;;;;;;24.73;67.62;98484.83;87719;1287;26619;-75
2022/08/28 12:57:20;;;;;;;13.40;6.30;;;;;;;24.76;67.96;98484.35;87406;1287;98706;-75
2022/08/28 12:59:35;;;;;;;10.20;6.50;;;;;;;24.82;67.73;98482.05;87462;1290;22813;-79
2022/08/28 13:01:37;;;;;;;13.10;5.90;;;;;;;24.88;67.81;98478.82;87762;1286;23106;-76
2022/08/28 13:03:56;;;;;;;14.60;7.10;;;;;;;24.93;67.64;98481.61;87474;1287;98735;-75
2022/08/28 13:06:05;;;;;;;8.30;5.70;;;;;;;24.91;67.46;98482.02;87542;1288;22717;-75
2022/08/28 13:08:12;;;;;;;8.40;5.70;;;;;;;24.90;67.21;98473.51;87455;1291;100096;-76
2022/08/28 13:10:23;;;;;;;10.20;5.70;;;;;;;24.93;67.38;98471.23;88067;1284;24004;-75
2022/08/28 13:12:43;;;;;;;12.50;5.50;;;;;;;24.98;67.38;98466.17;88263;1281;22618;-76
2022/08/28 13:14:45;;;;;;;10.90;5.60;;;;;;;25.01;67.28;98456.85;88112;1282;98619;-75
2022/08/28 13:16:47;;;;;;;8.50;5.30;;;;;;;25.02;67.20;98456.20;87892;1284;25495;-75
2022/08/28 13:19:08;;;;;;;12.20;5.10;;;;;;;25.03;66.90;98451.23;88221;1281;22579;-77
2022/08/28 13:21:26;;;;;;;7.20;5.30;;;;;;;25.02;66.74;98447.58;88574;1282;98506;-76
2022/08/28 13:23:29;;;;;;;10.00;4.70;;;;;;;24.99;66.69;98448.73;88606;1284;22582;-77
2022/08/28 13:25:34;;;;;;;13.30;5.40;;;;;;;24.99;66.34;98447.16;89018;1284;22641;-75
2022/08/28 13:27:36;;;;;;;8.70;4.90;;;;;;;24.97;66.52;98448.25;89351;1284;97384;-76
2022/08/28 13:30:18;;;;;;;10.50;5.30;;;;;;;24.99;66.74;98448.27;89783;1282;22643;-75
2022/08/28 13:32:21;;;;;;;13.40;5.40;;;;;;;25.03;66.77;98450.63;89417;1281;98218;-76
2022/08/28 13:34:28;;;;;;;11.50;5.70;;;;;;;25.08;66.85;98450.50;88820;1281;24365;-77
2022/08/28 13:36:43;;;;;;;16.30;7.90;;;;;;;25.12;66.76;98456.10;88774;1282;22623;-76
2022/08/28 13:38:49;;;;;;;17.60;9.40;;;;;;;25.14;66.56;98455.23;88669;1282;97457;-76
2022/08/28 13:40:58;;;;;;;13.20;7.30;;;;;;;25.16;66.71;98457.34;88783;1284;22565;-76
2022/08/28 13:43:07;;;;;;;17.20;7.70;;;;;;;25.20;66.87;98461.97;89154;1282;23203;-75
2022/08/28 13:45:09;;;;;;;10.90;5.70;;;;;;;25.23;66.68;98461.61;88903;1282;97426;-77
2022/08/28 13:47:12;;;;;;;11.30;5.60;;;;;;;25.26;66.16;98461.64;88440;1284;22596;-76
2022/08/28 13:49:15;;;;;;;9.00;5.40;;;;;;;25.27;66.56;98463.30;88610;1282;22589;-77
2022/08/28 13:51:19;;;;;;;13.10;5.60;;;;;;;25.31;66.47;98460.70;88433;1281;97862;-77
2022/08/28 13:53:20;;;;;;;11.60;5.50;;;;;;;25.33;66.19;98460.48;88429;1284;22696;-80
2022/08/28 13:55:25;;;;;;;6.40;5.50;;;;;;;25.31;66.19;98458.66;88575;1282;22598;-73
2022/08/28 13:57:28;;;;;;;7.20;5.70;;;;;;;25.32;66.33;98456.82;88581;1282;98483;-75
2022/08/28 13:59:31;;;;;;;7.40;5.40;;;;;;;25.29;66.10;98454.23;88478;1284;22847;-75
2022/08/28 14:04:02;;;;;;;;;;;;;;;25.20;66.18;98455.46;88503;1282;98794;-74
2022/08/28 14:06:12;;;;;;;6.20;5.40;;;;;;;25.21;65.99;98461.52;88386;1282;23264;-76
2022/08/28 14:08:20;;;;;;;10.90;5.70;;;;;;;25.18;66.01;98463.70;88504;1282;98540;-76
2022/08/28 14:10:30;;;;;;;11.30;5.50;;;;;;;25.16;66.07;98464.94;88260;1282;24343;-74
2022/08/28 14:12:40;;;;;;;10.80;6.40;;;;;;;25.16;65.91;98467.13;88329;1282;22675;-75
2022/08/28 14:14:45;;;;;;;10.70;5.80;;;;;;;25.12;65.96;98467.89;88387;1281;98980;-76
2022/08/28 14:16:51;;;;;;;12.30;7.20;;;;;;;25.12;66.15;98468.55;88029;1284;28001;-73
2022/08/28 14:19:04;;;;;;;17.00;6.90;;;;;;;25.12;66.37;98468.29;88196;1284;22650;-76
2022/08/28 14:21:19;;;;;;;9.50;6.30;;;;;;;25.11;66.03;98471.77;88222;1281;98923;-75
2022/08/28 14:23:30;;;;;;;10.70;6.60;;;;;;;25.03;65.83;98466.02;88664;1281;22640;-77
2022/08/28 14:25:39;;;;;;;13.00;6.80;;;;;;;24.92;65.72;98468.77;87929;1284;22708;-76
2022/08/28 14:27:44;;;;;;;11.50;7.30;;;;;;;24.89;66.21;98468.66;88039;1284;98658;-76
2022/08/28 14:29:53;;;;;;;12.20;6.70;;;;;;;24.89;66.33;98470.65;88256;1282;22616;-75
2022/08/28 14:32:21;;;;;;;11.40;7.70;;;;;;;24.90;66.29;98474.83;88194;1281;25931;-77
2022/08/28 14:34:51;;;;;;;14.50;7.70;;;;;;;24.90;66.31;98479.67;88189;1282;25642;-76
2022/08/28 14:37:07;;;;;;;;;;;;;;;;;;;;;
2022/08/28 14:39:24;;;;;;;14.40;7.10;;;;;;;24.88;66.32;98494.41;88160;1282;97626;-77
2022/08/28 14:41:52;;;;;;;12.10;7.20;;;;;;;24.88;66.48;98495.39;88340;1281;22613;-77
2022/08/28 14:44:07;;;;;;;13.30;7.00;;;;;;;24.86;66.56;98492.88;89868;1281;25377;-78
2022/08/28 14:46:51;;;;;;;;;;;;;;;;;;;;;
2022/08/28 14:49:03;;;;;;;13.10;7.40;;;;;;;24.79;66.58;98483.48;88254;1282;22541;-77
2022/08/28 14:51:40;;;;;;;19.20;7.70;;;;;;;24.76;66.57;98491.52;88149;1281;98889;-77
2022/08/28 14:53:57;;;;;;;16.20;8.00;;;;;;;24.76;66.65;98490.14;88109;1282;22737;-78
2022/08/28 14:56:11;;;;;;;17.00;7.80;;;;;;;24.73;66.76;98490.06;88084;1282;24716;-77
2022/08/28 14:58:48;;;;;;;15.80;8.40;;;;;;;24.71;66.60;98489.02;88151;1281;22805;-78
2022/08/28 15:01:03;;;;;;;11.30;6.20;;;;;;;24.71;66.65;98515.88;88128;1282;24046;-77
2022/08/28 15:03:08;;;;;;;7.50;4.90;;;;;;;24.58;65.64;98523.22;88169;1281;98665;-75
2022/08/28 15:05:15;;;;;;;15.50;4.80;;;;;;;24.38;65.67;98529.08;87857;1284;24119;-76
2022/08/28 15:07:21;;;;;;;5.00;4.40;;;;;;;24.17;65.70;98526.85;87912;1282;25045;-76
2022/08/28 15:09:25;;;;;;;5.80;5.10;;;;;;;24.02;65.92;98531.39;87915;1281;98565;-74
2022/08/28 15:11:28;;;;;;;6.70;5.00;;;;;;;23.84;65.69;98541.10;87891;1282;22816;-74
2022/08/28 15:13:39;;;;;;;5.80;5.10;;;;;;;23.64;65.82;98542.21;87917;1281;25437;-75
2022/08/28 15:16:03;;;;;;;8.90;5.70;;;;;;;23.42;66.01;98546.58;87794;1282;98950;-75